sensor_id;sensor_type;location;lat;lon;timestamp;P1;durP1;ratioP1;P2;durP2;ratioP2
72284;SDS011;60220;53.552;10.092;2023-01-28T00:00:50;1.95;;;1.33;;
72284;SDS011;60220;53.552;10.092;2023-01-28T00:03:16;4.88;;;1.55;;
72284;SDS011;60220;53.552;10.092;2023-01-28T00:05:45;3.88;;;1.50;;
72284;SDS011;60220;53.552;10.092;2023-01-28T00:08:15;5.00;;;1.30;;
72284;SDS011;60220;53.552;10.092;2023-01-28T00:10:41;4.05;;;1.70;;
72284;SDS011;60220;53.552;10.092;2023-01-28T00:13:08;5.20;;;1.63;;
72284;SDS011;60220;53.552;10.092;2023-01-28T00:15:36;3.47;;;1.67;;
72284;SDS011;60220;53.552;10.092;2023-01-28T00:18:02;2.97;;;1.40;;
72284;SDS011;60220;53.552;10.092;2023-01-28T00:20:32;2.22;;;1.38;;
72284;SDS011;60220;53.552;10.092;2023-01-28T00:22:59;7.18;;;1.67;;
72284;SDS011;60220;53.552;10.092;2023-01-28T00:25:33;1.92;;;1.10;;
72284;SDS011;60220;53.552;10.092;2023-01-28T00:27:59;2.05;;;1.17;;
72284;SDS011;60220;53.552;10.092;2023-01-28T00:30:25;3.85;;;1.50;;
72284;SDS011;60220;53.552;10.092;2023-01-28T00:32:52;4.95;;;1.80;;
72284;SDS011;60220;53.552;10.092;2023-01-28T00:35:19;3.33;;;1.38;;
72284;SDS011;60220;53.552;10.092;2023-01-28T00:37:45;5.82;;;1.52;;
72284;SDS011;60220;53.552;10.092;2023-01-28T00:40:14;4.35;;;2.15;;
72284;SDS011;60220;53.552;10.092;2023-01-28T00:42:47;3.83;;;1.45;;
72284;SDS011;60220;53.552;10.092;2023-01-28T00:45:15;2.42;;;1.30;;
72284;SDS011;60220;53.552;10.092;2023-01-28T00:47:41;6.20;;;1.30;;
72284;SDS011;60220;53.552;10.092;2023-01-28T00:50:12;2.97;;;1.40;;
72284;SDS011;60220;53.552;10.092;2023-01-28T00:52:40;2.63;;;1.30;;
72284;SDS011;60220;53.552;10.092;2023-01-28T00:55:08;3.00;;;1.70;;
72284;SDS011;60220;53.552;10.092;2023-01-28T00:57:37;2.45;;;1.00;;
72284;SDS011;60220;53.552;10.092;2023-01-28T01:00:04;6.30;;;1.50;;
72284;SDS011;60220;53.552;10.092;2023-01-28T01:02:31;3.13;;;1.05;;
72284;SDS011;60220;53.552;10.092;2023-01-28T01:04:57;4.97;;;0.95;;
72284;SDS011;60220;53.552;10.092;2023-01-28T01:07:27;3.00;;;1.52;;
72284;SDS011;60220;53.552;10.092;2023-01-28T01:10:09;2.40;;;0.98;;
72284;SDS011;60220;53.552;10.092;2023-01-28T01:12:38;7.53;;;1.13;;
72284;SDS011;60220;53.552;10.092;2023-01-28T01:15:08;2.03;;;1.20;;
72284;SDS011;60220;53.552;10.092;2023-01-28T01:17:38;2.45;;;1.00;;
72284;SDS011;60220;53.552;10.092;2023-01-28T01:20:05;2.63;;;1.20;;
72284;SDS011;60220;53.552;10.092;2023-01-28T01:22:36;1.42;;;1.20;;
72284;SDS011;60220;53.552;10.092;2023-01-28T01:25:02;1.92;;;1.30;;
72284;SDS011;60220;53.552;10.092;2023-01-28T01:27:31;2.30;;;1.27;;
72284;SDS011;60220;53.552;10.092;2023-01-28T01:29:58;2.75;;;1.27;;
72284;SDS011;60220;53.552;10.092;2023-01-28T01:32:24;4.55;;;1.20;;
72284;SDS011;60220;53.552;10.092;2023-01-28T01:34:54;2.92;;;1.00;;
72284;SDS011;60220;53.552;10.092;2023-01-28T01:37:20;4.03;;;1.23;;
72284;SDS011;60220;53.552;10.092;2023-01-28T01:39:46;1.92;;;0.95;;
72284;SDS011;60220;53.552;10.092;2023-01-28T01:42:13;2.58;;;1.17;;
72284;SDS011;60220;53.552;10.092;2023-01-28T01:44:51;1.38;;;0.93;;
72284;SDS011;60220;53.552;10.092;2023-01-28T01:47:27;3.20;;;1.25;;
72284;SDS011;60220;53.552;10.092;2023-01-28T01:49:58;4.63;;;1.60;;
72284;SDS011;60220;53.552;10.092;2023-01-28T01:52:27;1.95;;;1.00;;
72284;SDS011;60220;53.552;10.092;2023-01-28T01:54:58;2.08;;;1.27;;
72284;SDS011;60220;53.552;10.092;2023-01-28T01:57:34;1.35;;;1.08;;
72284;SDS011;60220;53.552;10.092;2023-01-28T02:00:05;3.97;;;1.45;;
72284;SDS011;60220;53.552;10.092;2023-01-28T02:02:38;2.33;;;1.10;;
72284;SDS011;60220;53.552;10.092;2023-01-28T02:05:07;1.42;;;1.00;;
72284;SDS011;60220;53.552;10.092;2023-01-28T02:07:38;4.68;;;1.17;;
72284;SDS011;60220;53.552;10.092;2023-01-28T02:10:10;2.58;;;1.00;;
72284;SDS011;60220;53.552;10.092;2023-01-28T02:12:39;2.35;;;1.02;;
72284;SDS011;60220;53.552;10.092;2023-01-28T02:15:08;1.98;;;0.88;;
72284;SDS011;60220;53.552;10.092;2023-01-28T02:17:41;3.73;;;1.10;;
72284;SDS011;60220;53.552;10.092;2023-01-28T02:20:11;1.50;;;1.13;;
72284;SDS011;60220;53.552;10.092;2023-01-28T02:22:45;1.80;;;0.95;;
72284;SDS011;60220;53.552;10.092;2023-01-28T02:25:40;4.53;;;1.73;;
72284;SDS011;60220;53.552;10.092;2023-01-28T02:28:29;2.22;;;1.20;;
72284;SDS011;60220;53.552;10.092;2023-01-28T02:31:07;2.67;;;1.35;;
72284;SDS011;60220;53.552;10.092;2023-01-28T02:33:38;6.05;;;1.17;;
72284;SDS011;60220;53.552;10.092;2023-01-28T02:36:11;3.75;;;1.40;;
72284;SDS011;60220;53.552;10.092;2023-01-28T02:38:45;3.10;;;1.40;;
72284;SDS011;60220;53.552;10.092;2023-01-28T02:41:19;3.65;;;1.30;;
72284;SDS011;60220;53.552;10.092;2023-01-28T02:43:50;2.35;;;1.25;;
72284;SDS011;60220;53.552;10.092;2023-01-28T02:46:17;4.78;;;1.42;;
72284;SDS011;60220;53.552;10.092;2023-01-28T02:49:09;1.90;;;1.30;;
72284;SDS011;60220;53.552;10.092;2023-01-28T02:51:41;5.70;;;1.70;;
72284;SDS011;60220;53.552;10.092;2023-01-28T02:54:19;2.78;;;1.27;;
72284;SDS011;60220;53.552;10.092;2023-01-28T02:56:59;5.63;;;1.50;;
72284;SDS011;60220;53.552;10.092;2023-01-28T02:59:34;1.40;;;1.17;;
72284;SDS011;60220;53.552;10.092;2023-01-28T03:02:11;1.77;;;1.00;;
72284;SDS011;60220;53.552;10.092;2023-01-28T03:04:45;2.25;;;1.00;;
72284;SDS011;60220;53.552;10.092;2023-01-28T03:07:16;4.10;;;1.30;;
72284;SDS011;60220;53.552;10.092;2023-01-28T03:09:44;3.42;;;1.48;;
72284;SDS011;60220;53.552;10.092;2023-01-28T03:12:13;4.68;;;1.42;;
72284;SDS011;60220;53.552;10.092;2023-01-28T03:15:03;4.35;;;1.40;;
72284;SDS011;60220;53.552;10.092;2023-01-28T03:17:51;2.17;;;1.67;;
72284;SDS011;60220;53.552;10.092;2023-01-28T03:20:40;2.40;;;1.40;;
72284;SDS011;60220;53.552;10.092;2023-01-28T03:23:31;3.67;;;1.20;;
72284;SDS011;60220;53.552;10.092;2023-01-28T03:26:21;3.58;;;1.20;;
72284;SDS011;60220;53.552;10.092;2023-01-28T03:29:11;6.13;;;1.50;;
72284;SDS011;60220;53.552;10.092;2023-01-28T03:31:59;3.90;;;1.35;;
72284;SDS011;60220;53.552;10.092;2023-01-28T03:34:44;3.15;;;1.40;;
72284;SDS011;60220;53.552;10.092;2023-01-28T03:37:30;4.20;;;1.40;;
72284;SDS011;60220;53.552;10.092;2023-01-28T03:40:00;5.43;;;1.50;;
72284;SDS011;60220;53.552;10.092;2023-01-28T03:42:29;1.90;;;1.40;;
72284;SDS011;60220;53.552;10.092;2023-01-28T03:44:55;3.75;;;1.30;;
72284;SDS011;60220;53.552;10.092;2023-01-28T03:47:23;3.90;;;1.63;;
72284;SDS011;60220;53.552;10.092;2023-01-28T03:49:50;8.45;;;2.05;;
72284;SDS011;60220;53.552;10.092;2023-01-28T03:52:19;1.73;;;1.30;;
72284;SDS011;60220;53.552;10.092;2023-01-28T03:54:49;3.58;;;1.67;;
72284;SDS011;60220;53.552;10.092;2023-01-28T03:57:17;3.45;;;1.20;;
72284;SDS011;60220;53.552;10.092;2023-01-28T03:59:45;8.45;;;1.98;;
72284;SDS011;60220;53.552;10.092;2023-01-28T04:02:14;4.60;;;1.50;;
72284;SDS011;60220;53.552;10.092;2023-01-28T04:04:43;6.15;;;1.90;;
72284;SDS011;60220;53.552;10.092;2023-01-28T04:07:10;3.47;;;1.38;;
72284;SDS011;60220;53.552;10.092;2023-01-28T04:09:39;7.03;;;1.60;;
72284;SDS011;60220;53.552;10.092;2023-01-28T04:12:06;2.90;;;1.30;;
72284;SDS011;60220;53.552;10.092;2023-01-28T04:14:32;3.90;;;1.60;;
72284;SDS011;60220;53.552;10.092;2023-01-28T04:16:58;6.43;;;1.60;;
72284;SDS011;60220;53.552;10.092;2023-01-28T04:19:27;2.53;;;1.63;;
72284;SDS011;60220;53.552;10.092;2023-01-28T04:21:56;3.85;;;1.38;;
72284;SDS011;60220;53.552;10.092;2023-01-28T04:26:52;5.20;;;1.17;;
72284;SDS011;60220;53.552;10.092;2023-01-28T04:29:18;1.65;;;1.20;;
72284;SDS011;60220;53.552;10.092;2023-01-28T04:31:44;4.85;;;1.50;;
72284;SDS011;60220;53.552;10.092;2023-01-28T04:34:10;7.32;;;1.88;;
72284;SDS011;60220;53.552;10.092;2023-01-28T04:36:37;2.45;;;1.45;;
72284;SDS011;60220;53.552;10.092;2023-01-28T04:39:03;4.55;;;1.52;;
72284;SDS011;60220;53.552;10.092;2023-01-28T04:41:29;7.13;;;2.03;;
72284;SDS011;60220;53.552;10.092;2023-01-28T04:43:57;6.68;;;1.45;;
72284;SDS011;60220;53.552;10.092;2023-01-28T04:46:23;9.90;;;2.05;;
72284;SDS011;60220;53.552;10.092;2023-01-28T04:48:54;2.55;;;1.13;;
72284;SDS011;60220;53.552;10.092;2023-01-28T04:51:25;5.15;;;1.70;;
72284;SDS011;60220;53.552;10.092;2023-01-28T04:53:51;4.00;;;1.58;;
72284;SDS011;60220;53.552;10.092;2023-01-28T04:56:17;2.50;;;1.50;;
72284;SDS011;60220;53.552;10.092;2023-01-28T04:58:51;3.08;;;1.48;;
72284;SDS011;60220;53.552;10.092;2023-01-28T05:01:17;3.97;;;1.75;;
72284;SDS011;60220;53.552;10.092;2023-01-28T05:03:45;8.23;;;1.50;;
72284;SDS011;60220;53.552;10.092;2023-01-28T05:06:11;4.55;;;1.60;;
72284;SDS011;60220;53.552;10.092;2023-01-28T05:08:37;3.70;;;1.35;;
72284;SDS011;60220;53.552;10.092;2023-01-28T05:11:06;6.47;;;1.60;;
72284;SDS011;60220;53.552;10.092;2023-01-28T05:13:32;3.00;;;1.30;;
72284;SDS011;60220;53.552;10.092;2023-01-28T05:15:58;6.45;;;2.25;;
72284;SDS011;60220;53.552;10.092;2023-01-28T05:18:29;2.70;;;1.45;;
72284;SDS011;60220;53.552;10.092;2023-01-28T05:20:55;1.83;;;1.52;;
72284;SDS011;60220;53.552;10.092;2023-01-28T05:23:21;3.05;;;2.00;;
72284;SDS011;60220;53.552;10.092;2023-01-28T05:25:47;3.40;;;1.92;;
72284;SDS011;60220;53.552;10.092;2023-01-28T05:28:15;6.65;;;1.90;;
72284;SDS011;60220;53.552;10.092;2023-01-28T05:30:42;5.93;;;2.60;;
72284;SDS011;60220;53.552;10.092;2023-01-28T05:33:10;6.85;;;2.00;;
72284;SDS011;60220;53.552;10.092;2023-01-28T05:35:36;8.07;;;2.15;;
72284;SDS011;60220;53.552;10.092;2023-01-28T05:38:02;4.65;;;2.17;;
72284;SDS011;60220;53.552;10.092;2023-01-28T05:40:31;4.22;;;1.85;;
72284;SDS011;60220;53.552;10.092;2023-01-28T05:42:58;4.53;;;1.52;;
72284;SDS011;60220;53.552;10.092;2023-01-28T05:45:24;8.85;;;2.15;;
72284;SDS011;60220;53.552;10.092;2023-01-28T05:47:52;6.80;;;1.90;;
72284;SDS011;60220;53.552;10.092;2023-01-28T05:50:18;4.88;;;1.77;;
72284;SDS011;60220;53.552;10.092;2023-01-28T05:52:44;4.20;;;1.80;;
72284;SDS011;60220;53.552;10.092;2023-01-28T05:55:10;5.18;;;2.10;;
72284;SDS011;60220;53.552;10.092;2023-01-28T05:57:36;3.90;;;1.85;;
72284;SDS011;60220;53.552;10.092;2023-01-28T06:00:03;5.78;;;1.80;;
72284;SDS011;60220;53.552;10.092;2023-01-28T06:02:30;3.33;;;1.83;;
72284;SDS011;60220;53.552;10.092;2023-01-28T06:04:56;5.82;;;2.30;;
72284;SDS011;60220;53.552;10.092;2023-01-28T06:07:22;3.22;;;2.15;;
72284;SDS011;60220;53.552;10.092;2023-01-28T06:09:49;6.13;;;2.20;;
72284;SDS011;60220;53.552;10.092;2023-01-28T06:12:15;4.28;;;1.58;;
72284;SDS011;60220;53.552;10.092;2023-01-28T06:14:41;5.88;;;2.03;;
72284;SDS011;60220;53.552;10.092;2023-01-28T06:17:10;8.85;;;2.53;;
72284;SDS011;60220;53.552;10.092;2023-01-28T06:19:36;5.90;;;2.35;;
72284;SDS011;60220;53.552;10.092;2023-01-28T06:22:02;6.18;;;2.13;;
72284;SDS011;60220;53.552;10.092;2023-01-28T06:24:28;6.80;;;2.25;;
72284;SDS011;60220;53.552;10.092;2023-01-28T06:26:54;4.85;;;2.28;;
72284;SDS011;60220;53.552;10.092;2023-01-28T06:29:20;4.93;;;2.22;;
72284;SDS011;60220;53.552;10.092;2023-01-28T06:31:48;8.80;;;2.45;;
72284;SDS011;60220;53.552;10.092;2023-01-28T06:34:17;4.85;;;2.60;;
72284;SDS011;60220;53.552;10.092;2023-01-28T06:36:43;3.30;;;2.17;;
72284;SDS011;60220;53.552;10.092;2023-01-28T06:39:11;4.82;;;2.83;;
72284;SDS011;60220;53.552;10.092;2023-01-28T06:41:37;14.57;;;6.95;;
72284;SDS011;60220;53.552;10.092;2023-01-28T06:44:03;24.35;;;9.70;;
72284;SDS011;60220;53.552;10.092;2023-01-28T06:46:31;4.90;;;2.83;;
72284;SDS011;60220;53.552;10.092;2023-01-28T06:49:00;7.30;;;2.95;;
72284;SDS011;60220;53.552;10.092;2023-01-28T06:51:26;5.63;;;2.92;;
72284;SDS011;60220;53.552;10.092;2023-01-28T06:53:52;9.20;;;3.00;;
72284;SDS011;60220;53.552;10.092;2023-01-28T06:56:18;8.18;;;4.13;;
72284;SDS011;60220;53.552;10.092;2023-01-28T06:58:44;6.70;;;3.50;;
72284;SDS011;60220;53.552;10.092;2023-01-28T07:01:10;5.82;;;3.28;;
72284;SDS011;60220;53.552;10.092;2023-01-28T07:03:36;9.65;;;3.13;;
72284;SDS011;60220;53.552;10.092;2023-01-28T07:06:03;6.75;;;3.15;;
72284;SDS011;60220;53.552;10.092;2023-01-28T07:08:29;5.57;;;2.85;;
72284;SDS011;60220;53.552;10.092;2023-01-28T07:10:55;9.25;;;3.00;;
72284;SDS011;60220;53.552;10.092;2023-01-28T07:13:24;6.10;;;3.35;;
72284;SDS011;60220;53.552;10.092;2023-01-28T07:15:51;10.70;;;3.65;;
72284;SDS011;60220;53.552;10.092;2023-01-28T07:18:17;6.10;;;3.13;;
72284;SDS011;60220;53.552;10.092;2023-01-28T07:20:43;7.35;;;4.25;;
72284;SDS011;60220;53.552;10.092;2023-01-28T07:23:12;7.45;;;3.38;;
72284;SDS011;60220;53.552;10.092;2023-01-28T07:25:38;8.40;;;3.42;;
72284;SDS011;60220;53.552;10.092;2023-01-28T07:28:06;7.78;;;4.10;;
72284;SDS011;60220;53.552;10.092;2023-01-28T07:30:35;10.88;;;4.22;;
72284;SDS011;60220;53.552;10.092;2023-01-28T07:33:01;9.02;;;4.18;;
72284;SDS011;60220;53.552;10.092;2023-01-28T07:35:27;5.55;;;3.78;;
72284;SDS011;60220;53.552;10.092;2023-01-28T07:37:54;67.63;;;31.15;;
72284;SDS011;60220;53.552;10.092;2023-01-28T07:40:21;9.43;;;5.95;;
72284;SDS011;60220;53.552;10.092;2023-01-28T07:42:48;10.23;;;5.03;;
72284;SDS011;60220;53.552;10.092;2023-01-28T07:45:14;8.18;;;4.22;;
72284;SDS011;60220;53.552;10.092;2023-01-28T07:47:43;8.70;;;4.70;;
72284;SDS011;60220;53.552;10.092;2023-01-28T07:50:09;13.00;;;4.82;;
72284;SDS011;60220;53.552;10.092;2023-01-28T07:52:36;10.20;;;4.93;;
72284;SDS011;60220;53.552;10.092;2023-01-28T07:55:11;14.38;;;6.25;;
72284;SDS011;60220;53.552;10.092;2023-01-28T07:57:48;46.53;;;24.17;;
72284;SDS011;60220;53.552;10.092;2023-01-28T08:02:42;15.15;;;6.80;;
72284;SDS011;60220;53.552;10.092;2023-01-28T08:05:12;14.65;;;6.32;;
72284;SDS011;60220;53.552;10.092;2023-01-28T08:07:39;19.45;;;7.90;;
72284;SDS011;60220;53.552;10.092;2023-01-28T08:10:05;10.65;;;7.13;;
72284;SDS011;60220;53.552;10.092;2023-01-28T08:12:32;18.20;;;10.52;;
72284;SDS011;60220;53.552;10.092;2023-01-28T08:14:58;51.30;;;25.50;;
72284;SDS011;60220;53.552;10.092;2023-01-28T08:17:24;17.67;;;7.20;;
72284;SDS011;60220;53.552;10.092;2023-01-28T08:19:51;10.85;;;6.97;;
72284;SDS011;60220;53.552;10.092;2023-01-28T08:22:17;10.82;;;6.43;;
72284;SDS011;60220;53.552;10.092;2023-01-28T08:24:42;12.82;;;7.20;;
72284;SDS011;60220;53.552;10.092;2023-01-28T08:27:08;15.15;;;7.70;;
72284;SDS011;60220;53.552;10.092;2023-01-28T08:29:34;11.02;;;7.07;;
72284;SDS011;60220;53.552;10.092;2023-01-28T08:32:00;12.52;;;7.53;;
72284;SDS011;60220;53.552;10.092;2023-01-28T08:34:26;12.55;;;7.05;;
72284;SDS011;60220;53.552;10.092;2023-01-28T08:36:55;13.52;;;6.72;;
72284;SDS011;60220;53.552;10.092;2023-01-28T08:39:21;14.15;;;8.07;;
72284;SDS011;60220;53.552;10.092;2023-01-28T08:41:49;10.38;;;6.78;;
72284;SDS011;60220;53.552;10.092;2023-01-28T08:44:15;12.23;;;7.53;;
72284;SDS011;60220;53.552;10.092;2023-01-28T08:46:41;10.98;;;6.90;;
72284;SDS011;60220;53.552;10.092;2023-01-28T08:49:10;11.73;;;7.43;;
72284;SDS011;60220;53.552;10.092;2023-01-28T08:51:35;11.93;;;7.50;;
72284;SDS011;60220;53.552;10.092;2023-01-28T08:54:04;12.45;;;7.30;;
72284;SDS011;60220;53.552;10.092;2023-01-28T08:56:30;15.13;;;7.25;;
72284;SDS011;60220;53.552;10.092;2023-01-28T08:58:56;10.48;;;7.28;;
72284;SDS011;60220;53.552;10.092;2023-01-28T09:01:22;11.48;;;7.57;;
72284;SDS011;60220;53.552;10.092;2023-01-28T09:03:50;13.18;;;7.53;;
72284;SDS011;60220;53.552;10.092;2023-01-28T09:06:16;13.98;;;7.32;;
72284;SDS011;60220;53.552;10.092;2023-01-28T09:08:42;13.38;;;7.38;;
72284;SDS011;60220;53.552;10.092;2023-01-28T09:11:12;12.65;;;6.88;;
72284;SDS011;60220;53.552;10.092;2023-01-28T09:13:37;19.50;;;10.05;;
72284;SDS011;60220;53.552;10.092;2023-01-28T09:16:04;22.73;;;11.70;;
72284;SDS011;60220;53.552;10.092;2023-01-28T09:18:30;11.88;;;7.85;;
72284;SDS011;60220;53.552;10.092;2023-01-28T09:20:56;9.55;;;6.65;;
72284;SDS011;60220;53.552;10.092;2023-01-28T09:23:22;13.73;;;7.40;;
72284;SDS011;60220;53.552;10.092;2023-01-28T09:25:48;11.65;;;7.43;;
72284;SDS011;60220;53.552;10.092;2023-01-28T09:28:15;9.77;;;6.90;;
72284;SDS011;60220;53.552;10.092;2023-01-28T09:30:41;14.40;;;7.95;;
72284;SDS011;60220;53.552;10.092;2023-01-28T09:33:09;8.75;;;7.03;;
72284;SDS011;60220;53.552;10.092;2023-01-28T09:35:37;19.63;;;7.82;;
72284;SDS011;60220;53.552;10.092;2023-01-28T09:38:03;9.30;;;6.53;;
72284;SDS011;60220;53.552;10.092;2023-01-28T09:40:31;15.48;;;7.78;;
72284;SDS011;60220;53.552;10.092;2023-01-28T09:45:51;8.30;;;6.45;;
72284;SDS011;60220;53.552;10.092;2023-01-28T09:48:23;9.00;;;6.63;;
72284;SDS011;60220;53.552;10.092;2023-01-28T09:50:54;11.70;;;7.40;;
72284;SDS011;60220;53.552;10.092;2023-01-28T09:53:21;13.43;;;6.80;;
72284;SDS011;60220;53.552;10.092;2023-01-28T09:55:52;9.40;;;6.32;;
72284;SDS011;60220;53.552;10.092;2023-01-28T09:58:21;12.18;;;7.28;;
72284;SDS011;60220;53.552;10.092;2023-01-28T10:00:49;10.68;;;6.28;;
72284;SDS011;60220;53.552;10.092;2023-01-28T10:03:35;11.90;;;8.00;;
72284;SDS011;60220;53.552;10.092;2023-01-28T10:06:15;7.70;;;5.50;;
72284;SDS011;60220;53.552;10.092;2023-01-28T10:11:48;13.18;;;5.50;;
72284;SDS011;60220;53.552;10.092;2023-01-28T10:14:25;5.30;;;4.35;;
72284;SDS011;60220;53.552;10.092;2023-01-28T10:17:05;10.40;;;6.13;;
72284;SDS011;60220;53.552;10.092;2023-01-28T10:19:39;6.80;;;5.00;;
72284;SDS011;60220;53.552;10.092;2023-01-28T10:22:11;9.13;;;4.95;;
72284;SDS011;60220;53.552;10.092;2023-01-28T10:24:43;7.97;;;4.93;;
72284;SDS011;60220;53.552;10.092;2023-01-28T10:27:11;5.68;;;4.30;;
72284;SDS011;60220;53.552;10.092;2023-01-28T10:29:41;10.48;;;5.10;;
72284;SDS011;60220;53.552;10.092;2023-01-28T10:32:14;8.95;;;4.78;;
72284;SDS011;60220;53.552;10.092;2023-01-28T10:34:46;8.88;;;5.28;;
72284;SDS011;60220;53.552;10.092;2023-01-28T10:37:12;30.27;;;16.55;;
72284;SDS011;60220;53.552;10.092;2023-01-28T10:39:40;7.82;;;5.07;;
72284;SDS011;60220;53.552;10.092;2023-01-28T10:42:12;9.63;;;5.22;;
72284;SDS011;60220;53.552;10.092;2023-01-28T10:44:45;10.13;;;5.03;;
72284;SDS011;60220;53.552;10.092;2023-01-28T10:47:16;12.77;;;5.78;;
72284;SDS011;60220;53.552;10.092;2023-01-28T10:49:52;6.88;;;4.90;;
72284;SDS011;60220;53.552;10.092;2023-01-28T10:52:26;11.48;;;5.20;;
72284;SDS011;60220;53.552;10.092;2023-01-28T10:54:58;6.85;;;4.97;;
72284;SDS011;60220;53.552;10.092;2023-01-28T10:57:25;8.57;;;5.47;;
72284;SDS011;60220;53.552;10.092;2023-01-28T10:59:52;8.68;;;4.68;;
72284;SDS011;60220;53.552;10.092;2023-01-28T11:02:20;7.00;;;5.35;;
72284;SDS011;60220;53.552;10.092;2023-01-28T11:05:00;9.85;;;5.38;;
72284;SDS011;60220;53.552;10.092;2023-01-28T11:07:30;9.82;;;5.78;;
72284;SDS011;60220;53.552;10.092;2023-01-28T11:09:57;11.93;;;6.32;;
72284;SDS011;60220;53.552;10.092;2023-01-28T11:12:24;10.00;;;4.82;;
72284;SDS011;60220;53.552;10.092;2023-01-28T11:14:53;8.45;;;5.82;;
72284;SDS011;60220;53.552;10.092;2023-01-28T11:17:20;7.75;;;5.30;;
72284;SDS011;60220;53.552;10.092;2023-01-28T11:19:48;11.95;;;6.22;;
72284;SDS011;60220;53.552;10.092;2023-01-28T11:22:20;10.55;;;5.72;;
72284;SDS011;60220;53.552;10.092;2023-01-28T11:24:57;10.18;;;5.70;;
72284;SDS011;60220;53.552;10.092;2023-01-28T11:27:24;9.55;;;5.88;;
72284;SDS011;60220;53.552;10.092;2023-01-28T11:29:54;14.18;;;6.40;;
72284;SDS011;60220;53.552;10.092;2023-01-28T11:32:24;9.55;;;6.05;;
72284;SDS011;60220;53.552;10.092;2023-01-28T11:34:52;10.55;;;6.22;;
72284;SDS011;60220;53.552;10.092;2023-01-28T11:37:22;13.30;;;5.72;;
72284;SDS011;60220;53.552;10.092;2023-01-28T11:40:01;8.40;;;6.20;;
72284;SDS011;60220;53.552;10.092;2023-01-28T11:42:39;10.32;;;5.85;;
72284;SDS011;60220;53.552;10.092;2023-01-28T11:45:08;13.85;;;6.35;;
72284;SDS011;60220;53.552;10.092;2023-01-28T11:47:43;13.27;;;6.50;;
72284;SDS011;60220;53.552;10.092;2023-01-28T11:50:23;8.80;;;5.72;;
72284;SDS011;60220;53.552;10.092;2023-01-28T11:52:58;9.55;;;6.47;;
72284;SDS011;60220;53.552;10.092;2023-01-28T11:55:36;11.00;;;5.68;;
72284;SDS011;60220;53.552;10.092;2023-01-28T11:58:10;9.10;;;5.70;;
72284;SDS011;60220;53.552;10.092;2023-01-28T12:00:45;15.68;;;8.55;;
72284;SDS011;60220;53.552;10.092;2023-01-28T12:03:22;21.77;;;11.07;;
72284;SDS011;60220;53.552;10.092;2023-01-28T12:06:21;12.70;;;6.38;;
72284;SDS011;60220;53.552;10.092;2023-01-28T12:08:58;9.70;;;5.38;;
72284;SDS011;60220;53.552;10.092;2023-01-28T12:11:36;22.73;;;9.25;;
72284;SDS011;60220;53.552;10.092;2023-01-28T12:14:33;12.70;;;8.15;;
72284;SDS011;60220;53.552;10.092;2023-01-28T12:17:11;16.90;;;7.95;;
72284;SDS011;60220;53.552;10.092;2023-01-28T12:19:49;9.95;;;6.10;;
72284;SDS011;60220;53.552;10.092;2023-01-28T12:25:28;11.52;;;6.28;;
72284;SDS011;60220;53.552;10.092;2023-01-28T12:28:15;11.63;;;7.35;;
72284;SDS011;60220;53.552;10.092;2023-01-28T12:31:01;11.43;;;6.68;;
72284;SDS011;60220;53.552;10.092;2023-01-28T12:33:50;11.25;;;6.70;;
72284;SDS011;60220;53.552;10.092;2023-01-28T12:39:08;9.75;;;5.82;;
72284;SDS011;60220;53.552;10.092;2023-01-28T12:41:45;10.73;;;6.20;;
72284;SDS011;60220;53.552;10.092;2023-01-28T12:44:17;10.88;;;6.00;;
72284;SDS011;60220;53.552;10.092;2023-01-28T12:46:49;11.57;;;6.07;;
72284;SDS011;60220;53.552;10.092;2023-01-28T12:49:20;11.35;;;6.35;;
72284;SDS011;60220;53.552;10.092;2023-01-28T12:51:53;12.02;;;6.72;;
72284;SDS011;60220;53.552;10.092;2023-01-28T12:54:29;14.40;;;7.05;;
72284;SDS011;60220;53.552;10.092;2023-01-28T12:57:00;14.38;;;8.55;;
72284;SDS011;60220;53.552;10.092;2023-01-28T12:59:28;11.55;;;7.05;;
72284;SDS011;60220;53.552;10.092;2023-01-28T13:02:00;18.08;;;7.90;;
72284;SDS011;60220;53.552;10.092;2023-01-28T13:04:44;9.68;;;6.75;;
72284;SDS011;60220;53.552;10.092;2023-01-28T13:07:20;10.25;;;6.10;;
72284;SDS011;60220;53.552;10.092;2023-01-28T13:09:51;9.90;;;6.60;;
72284;SDS011;60220;53.552;10.092;2023-01-28T13:12:20;10.10;;;5.65;;
72284;SDS011;60220;53.552;10.092;2023-01-28T13:14:47;12.95;;;6.35;;
72284;SDS011;60220;53.552;10.092;2023-01-28T13:17:23;11.82;;;6.97;;
72284;SDS011;60220;53.552;10.092;2023-01-28T13:19:52;12.82;;;7.38;;
72284;SDS011;60220;53.552;10.092;2023-01-28T13:22:26;8.48;;;6.38;;
72284;SDS011;60220;53.552;10.092;2023-01-28T13:24:54;8.77;;;6.13;;
72284;SDS011;60220;53.552;10.092;2023-01-28T13:27:23;13.10;;;7.53;;
72284;SDS011;60220;53.552;10.092;2023-01-28T13:29:59;11.15;;;7.07;;
72284;SDS011;60220;53.552;10.092;2023-01-28T13:32:29;11.48;;;6.45;;
72284;SDS011;60220;53.552;10.092;2023-01-28T13:34:59;11.82;;;7.35;;
72284;SDS011;60220;53.552;10.092;2023-01-28T13:37:31;14.38;;;7.63;;
72284;SDS011;60220;53.552;10.092;2023-01-28T13:40:02;13.15;;;7.45;;
72284;SDS011;60220;53.552;10.092;2023-01-28T13:42:33;13.77;;;8.18;;
72284;SDS011;60220;53.552;10.092;2023-01-28T13:45:19;15.35;;;9.02;;
72284;SDS011;60220;53.552;10.092;2023-01-28T13:47:50;13.70;;;8.55;;
72284;SDS011;60220;53.552;10.092;2023-01-28T13:50:22;16.63;;;8.90;;
72284;SDS011;60220;53.552;10.092;2023-01-28T13:52:56;12.45;;;8.13;;
72284;SDS011;60220;53.552;10.092;2023-01-28T13:55:28;18.17;;;8.55;;
72284;SDS011;60220;53.552;10.092;2023-01-28T13:58:09;17.17;;;9.23;;
72284;SDS011;60220;53.552;10.092;2023-01-28T14:04:17;15.02;;;9.77;;
72284;SDS011;60220;53.552;10.092;2023-01-28T14:07:02;17.55;;;10.80;;
72284;SDS011;60220;53.552;10.092;2023-01-28T14:09:48;13.48;;;9.35;;
72284;SDS011;60220;53.552;10.092;2023-01-28T14:12:38;18.88;;;10.30;;
72284;SDS011;60220;53.552;10.092;2023-01-28T14:18:27;15.85;;;9.27;;
72284;SDS011;60220;53.552;10.092;2023-01-28T14:20:58;20.75;;;9.85;;
72284;SDS011;60220;53.552;10.092;2023-01-28T14:23:27;17.05;;;9.57;;
72284;SDS011;60220;53.552;10.092;2023-01-28T14:26:09;19.23;;;11.50;;
72284;SDS011;60220;53.552;10.092;2023-01-28T14:28:46;16.83;;;10.10;;
72284;SDS011;60220;53.552;10.092;2023-01-28T14:31:21;17.20;;;10.57;;
72284;SDS011;60220;53.552;10.092;2023-01-28T14:33:51;18.30;;;10.77;;
72284;SDS011;60220;53.552;10.092;2023-01-28T14:36:17;19.02;;;11.85;;
72284;SDS011;60220;53.552;10.092;2023-01-28T14:38:44;17.50;;;10.15;;
72284;SDS011;60220;53.552;10.092;2023-01-28T14:41:15;19.73;;;10.95;;
72284;SDS011;60220;53.552;10.092;2023-01-28T14:43:47;19.42;;;10.38;;
72284;SDS011;60220;53.552;10.092;2023-01-28T14:46:17;21.58;;;10.65;;
72284;SDS011;60220;53.552;10.092;2023-01-28T14:48:59;19.85;;;11.85;;
72284;SDS011;60220;53.552;10.092;2023-01-28T14:51:51;25.80;;;12.95;;
72284;SDS011;60220;53.552;10.092;2023-01-28T14:54:37;20.30;;;11.65;;
72284;SDS011;60220;53.552;10.092;2023-01-28T14:57:18;18.58;;;10.13;;
72284;SDS011;60220;53.552;10.092;2023-01-28T14:59:55;21.63;;;10.80;;
72284;SDS011;60220;53.552;10.092;2023-01-28T15:02:25;19.27;;;10.50;;
72284;SDS011;60220;53.552;10.092;2023-01-28T15:04:53;23.50;;;10.73;;
72284;SDS011;60220;53.552;10.092;2023-01-28T15:07:19;17.60;;;10.77;;
72284;SDS011;60220;53.552;10.092;2023-01-28T15:09:59;19.15;;;10.23;;
72284;SDS011;60220;53.552;10.092;2023-01-28T15:12:25;17.23;;;10.30;;